createdAt,value
2022-09-23T00:01:09.871Z,100138.31
2022-09-23T00:03:39.108Z,100137.38
2022-09-23T00:06:07.962Z,100136.34
2022-09-23T00:08:38.509Z,100141.56
2022-09-23T00:11:07.735Z,100138.84
2022-09-23T00:13:36.720Z,100143.91
2022-09-23T00:16:08.279Z,100143.91
2022-09-23T00:18:36.231Z,100149.06
2022-09-23T00:21:05.714Z,100144.88
2022-09-23T00:23:33.566Z,100142.97
2022-09-23T00:26:02.667Z,100137.94
2022-09-23T00:28:30.691Z,100137.62
2022-09-23T00:31:02.263Z,100135.31
2022-09-23T00:33:30.234Z,100140.09
2022-09-23T00:36:01.783Z,100137.38
2022-09-23T00:38:29.558Z,100133.69
2022-09-23T00:40:58.665Z,100134.44
2022-09-23T00:43:39.193Z,100139.47
2022-09-23T00:46:08.895Z,100141.16
2022-09-23T00:48:38.336Z,100137.97
2022-09-23T00:51:08.027Z,100135.59
2022-09-23T00:53:36.286Z,100137.06
2022-09-23T00:56:04.803Z,100141.41
2022-09-23T00:58:33.515Z,100141.47
2022-09-23T01:01:02.269Z,100144.88
2022-09-23T01:03:30.007Z,100142.16
2022-09-23T01:05:58.046Z,100136.56
2022-09-23T01:08:27.333Z,100134.44
2022-09-23T01:10:54.857Z,100135.59
2022-09-23T01:13:41.195Z,100135.91
2022-09-23T01:16:15.311Z,100135.25
2022-09-23T01:18:50.509Z,100143.31
2022-09-23T01:21:28.407Z,100132.31
2022-09-23T01:24:11.141Z,100129.47
2022-09-23T01:26:51.077Z,100139.53
2022-09-23T01:29:33.638Z,100139.34
2022-09-23T01:32:25.541Z,100137.47
2022-09-23T01:35:06.899Z,100142.50
2022-09-23T01:37:42.000Z,100130.84
2022-09-23T01:40:15.431Z,100138.78
2022-09-23T01:42:47.480Z,100136.03
2022-09-23T01:45:15.106Z,100138.66
2022-09-23T01:47:45.276Z,100135.13
2022-09-23T01:50:35.811Z,100135.94
2022-09-23T01:53:06.670Z,100141.09
2022-09-23T01:55:36.946Z,100141.81
2022-09-23T01:58:12.429Z,100141.00
2022-09-23T02:00:41.995Z,100137.62
2022-09-23T02:03:15.522Z,100139.31
2022-09-23T02:05:42.997Z,100142.03
2022-09-23T02:08:22.479Z,100142.25
2022-09-23T02:10:53.713Z,100142.16
2022-09-23T02:13:24.893Z,100135.94
2022-09-23T02:15:56.060Z,100129.88
2022-09-23T02:18:29.567Z,100134.16
2022-09-23T02:20:59.171Z,100135.84
2022-09-23T02:23:41.314Z,100133.75
2022-09-23T02:26:14.707Z,100130.38
2022-09-23T02:28:51.048Z,100134.47
2022-09-23T02:31:28.105Z,100130.19
2022-09-23T02:34:00.874Z,100132.19
2022-09-23T02:36:31.774Z,100128.81
2022-09-23T02:39:02.134Z,100129.66
2022-09-23T02:41:42.168Z,100129.47
2022-09-23T02:44:11.941Z,100122.34
2022-09-23T02:46:39.707Z,100125.78
2022-09-23T02:49:16.046Z,100132.81
2022-09-23T02:51:44.061Z,100125.69
2022-09-23T02:54:17.579Z,100131.66
2022-09-23T02:56:45.492Z,100133.53
2022-09-23T02:59:13.273Z,100137.75
2022-09-23T03:01:47.833Z,100143.81
2022-09-23T03:04:31.843Z,100143.91
2022-09-23T03:07:06.582Z,100145.50
2022-09-23T03:09:39.022Z,100140.12
2022-09-23T03:12:09.317Z,100142.88
2022-09-23T03:14:45.415Z,100135.94
2022-09-23T03:20:11.227Z,100141.81
2022-09-23T03:22:43.604Z,100145.78
2022-09-23T03:25:13.575Z,100138.47
2022-09-23T03:27:42.745Z,100140.03
2022-09-23T03:30:10.727Z,100136.34
2022-09-23T03:32:38.718Z,100136.25
2022-09-23T03:35:06.504Z,100134.69
2022-09-23T03:37:36.083Z,100134.69
2022-09-23T03:40:29.103Z,100128.81
2022-09-23T03:42:57.713Z,100139.31
2022-09-23T03:45:27.941Z,100128.81
2022-09-23T03:47:55.621Z,100123.88
2022-09-23T03:50:23.124Z,100132.72
2022-09-23T03:52:51.086Z,100130.28
2022-09-23T03:55:19.532Z,100119.59
2022-09-23T03:57:47.449Z,100118.75
2022-09-23T04:00:15.804Z,100111.44
2022-09-23T04:02:44.425Z,100098.59
2022-09-23T04:05:12.536Z,100098.50
2022-09-23T04:07:42.858Z,100095.69
2022-09-23T04:10:10.834Z,100098.94
2022-09-23T04:12:38.663Z,100100.53
2022-09-23T04:15:06.616Z,100100.19
2022-09-23T04:17:34.653Z,100095.16
2022-09-23T04:20:02.439Z,100097.78
2022-09-23T04:22:30.194Z,100101.03
2022-09-23T04:24:58.139Z,100103.22
2022-09-23T04:27:25.717Z,100109.00
2022-09-23T04:29:53.428Z,100099.84
2022-09-23T04:32:22.221Z,100111.78
2022-09-23T04:34:49.713Z,100108.00
2022-09-23T04:37:17.164Z,100120.41
2022-09-23T04:39:44.994Z,100116.38
2022-09-23T04:42:12.489Z,100108.50
2022-09-23T04:44:40.031Z,100097.09
2022-09-23T04:47:07.902Z,100101.16
2022-09-23T04:49:35.546Z,100098.34
2022-09-23T04:52:03.090Z,100096.44
2022-09-23T04:54:30.942Z,100095.78
2022-09-23T04:56:58.421Z,100095.44
2022-09-23T04:59:25.963Z,100081.88
2022-09-23T05:01:54.811Z,100074.28
2022-09-23T05:04:23.136Z,100072.81
2022-09-23T05:06:50.670Z,100079.09
2022-09-23T05:09:18.658Z,100081.09
2022-09-23T05:11:46.291Z,100075.56
2022-09-23T05:14:13.781Z,100085.47
2022-09-23T05:16:41.779Z,100091.41
2022-09-23T05:19:09.268Z,100097.78
2022-09-23T05:21:38.093Z,100099.53
2022-09-23T05:24:09.032Z,100097.28
2022-09-23T05:26:36.525Z,100103.44
2022-09-23T05:29:04.175Z,100092.31
2022-09-23T05:31:32.355Z,100102.66
2022-09-23T05:34:03.161Z,100111.87
2022-09-23T05:36:35.725Z,100093.22
2022-09-23T05:39:06.443Z,100098.25
2022-09-23T05:41:34.229Z,100097.47
2022-09-23T05:44:02.036Z,100096.16
2022-09-23T05:46:30.921Z,100089.16
2022-09-23T05:49:02.531Z,100083.09
2022-09-23T05:51:35.039Z,100085.50
2022-09-23T05:54:05.876Z,100076.28
2022-09-23T05:56:34.230Z,100072.22
2022-09-23T05:59:02.746Z,100065.81
2022-09-23T06:01:34.190Z,100061.66
2022-09-23T06:04:03.421Z,100053.34
2022-09-23T06:06:32.207Z,100044.59
2022-09-23T06:09:00.516Z,100038.56
2022-09-23T06:11:32.267Z,100044.75
2022-09-23T06:14:01.381Z,100038.78
2022-09-23T06:16:30.629Z,100054.75
2022-09-23T06:19:03.050Z,100051.78
2022-09-23T06:21:33.851Z,100056.47
2022-09-23T06:24:01.491Z,100058.16
2022-09-23T06:26:34.102Z,100056.28
2022-09-23T06:29:03.035Z,100060.06
2022-09-23T06:31:30.719Z,100068.94
2022-09-23T06:34:09.907Z,100066.50
2022-09-23T06:36:43.951Z,100060.25
2022-09-23T06:39:12.988Z,100060.00
2022-09-23T06:41:40.809Z,100044.47
2022-09-23T06:44:11.380Z,100047.25
2022-09-23T06:46:38.978Z,100052.34
2022-09-23T06:49:06.924Z,100058.50
2022-09-23T06:51:34.778Z,100059.00
2022-09-23T06:54:02.355Z,100070.97
2022-09-23T06:56:34.690Z,100074.41
2022-09-23T06:59:05.825Z,100074.22
2022-09-23T07:01:34.766Z,100068.53
2022-09-23T07:04:02.386Z,100072.06
2022-09-23T07:06:29.914Z,100074.56
2022-09-23T07:08:57.796Z,100077.44
2022-09-23T07:11:25.238Z,100067.72
2022-09-23T07:13:52.743Z,100066.25
2022-09-23T07:16:21.592Z,100063.16
2022-09-23T07:18:49.080Z,100062.19
2022-09-23T07:21:17.708Z,100059.69
2022-09-23T07:23:46.568Z,100063.53
2022-09-23T07:26:14.923Z,100057.72
2022-09-23T07:28:42.898Z,100059.84
2022-09-23T07:31:15.520Z,100056.06
2022-09-23T07:33:44.491Z,100052.47
2022-09-23T07:36:14.264Z,100052.88
2022-09-23T07:38:45.408Z,100045.75
2022-09-23T07:41:15.224Z,100039.84
2022-09-23T07:43:44.376Z,100031.03
2022-09-23T07:46:15.377Z,100032.22
2022-09-23T07:48:43.659Z,100032.94
2022-09-23T07:51:13.407Z,100028.69
2022-09-23T07:53:40.840Z,100049.12
2022-09-23T07:56:08.685Z,100041.06
2022-09-23T07:58:36.238Z,100033.34
2022-09-23T08:01:08.203Z,100042.91
2022-09-23T08:03:36.533Z,100031.44
2022-09-23T08:06:11.453Z,100032.00
2022-09-23T08:08:43.767Z,100036.28
2022-09-23T08:11:12.718Z,100039.63
2022-09-23T08:13:40.896Z,100043.03
2022-09-23T08:16:08.659Z,100035.84
2022-09-23T08:18:36.189Z,100049.03
2022-09-23T08:21:04.189Z,100043.13
2022-09-23T08:23:34.440Z,100045.34
2022-09-23T08:26:03.402Z,100032.03
2022-09-23T08:28:33.475Z,100038.72
2022-09-23T08:31:01.104Z,100042.25
2022-09-23T08:33:28.718Z,100036.50
2022-09-23T08:36:00.379Z,100038.53
2022-09-23T08:38:28.240Z,100038.09
2022-09-23T08:41:03.826Z,100023.03
2022-09-23T08:43:33.086Z,100012.28
2022-09-23T08:46:03.170Z,100010.88
2022-09-23T08:48:44.245Z,100002.03
2022-09-23T08:51:16.441Z,100004.38
2022-09-23T08:53:45.873Z,100011.53
2022-09-23T08:56:15.276Z,100017.63
2022-09-23T08:59:03.570Z,100003.63
2022-09-23T09:01:49.568Z,99997.97
2022-09-23T09:04:17.012Z,99994.63
2022-09-23T09:06:53.637Z,100001.00
2022-09-23T09:09:24.594Z,100013.09
2022-09-23T09:11:58.363Z,100009.81
2022-09-23T09:14:30.381Z,100003.19
2022-09-23T09:17:01.523Z,100006.78
2022-09-23T09:19:35.163Z,100016.37
2022-09-23T09:22:07.520Z,100018.53
2022-09-23T09:24:35.574Z,100020.75
2022-09-23T09:27:11.755Z,100017.97
2022-09-23T09:29:52.015Z,100010.84
2022-09-23T09:32:29.747Z,100016.34
2022-09-23T09:35:01.388Z,100008.66
2022-09-23T09:37:33.961Z,100016.25
2022-09-23T09:40:02.377Z,100010.63
2022-09-23T09:42:39.372Z,100010.75
2022-09-23T09:45:13.373Z,100009.28
2022-09-23T09:47:41.364Z,100007.28
2022-09-23T09:50:10.954Z,100007.38
2022-09-23T09:52:43.557Z,100005.97
2022-09-23T09:55:14.129Z,100013.47
2022-09-23T09:57:53.981Z,100006.84
2022-09-23T10:00:21.861Z,100015.62
2022-09-23T10:02:53.350Z,100005.31
2022-09-23T10:05:26.291Z,100007.38
2022-09-23T10:07:54.910Z,99994.88
2022-09-23T10:10:33.410Z,99989.69
2022-09-23T10:13:15.385Z,99988.34
2022-09-23T10:15:45.016Z,99973.78
2022-09-23T10:18:19.798Z,99991.03
2022-09-23T10:20:48.390Z,99970.87
2022-09-23T10:23:18.191Z,99971.97
2022-09-23T10:25:55.923Z,99974.41
2022-09-23T10:28:38.984Z,99961.88
2022-09-23T10:31:13.638Z,99961.75
2022-09-23T10:33:49.470Z,99952.28
2022-09-23T10:36:18.110Z,99950.03
2022-09-23T10:38:55.686Z,99943.34
2022-09-23T10:41:53.471Z,99957.34
2022-09-23T10:45:03.085Z,99952.06
2022-09-23T10:47:37.328Z,99956.66
2022-09-23T10:50:17.262Z,99948.09
2022-09-23T10:52:44.755Z,99948.16
2022-09-23T10:55:12.577Z,99948.94
2022-09-23T10:57:46.378Z,99949.56
2022-09-23T11:00:22.628Z,99942.44
2022-09-23T11:03:09.728Z,99929.66
2022-09-23T11:05:37.495Z,99936.50
2022-09-23T11:08:23.673Z,99944.94
2022-09-23T11:11:17.644Z,99946.56
2022-09-23T11:17:06.048Z,99941.91
2022-09-23T11:19:45.558Z,99944.22
2022-09-23T11:22:37.674Z,99946.38
2022-09-23T11:25:28.371Z,99936.62
2022-09-23T11:28:09.119Z,99924.91
2022-09-23T11:30:51.747Z,99923.09
2022-09-23T11:33:39.896Z,99918.22
2022-09-23T11:36:33.661Z,99924.91
2022-09-23T11:39:06.445Z,99920.81
2022-09-23T11:41:37.404Z,99920.78
2022-09-23T11:44:05.275Z,99925.97
2022-09-23T11:46:38.579Z,99930.34
2022-09-23T11:49:16.248Z,99921.19
2022-09-23T11:51:52.797Z,99927.25
2022-09-23T11:54:31.199Z,99921.66
2022-09-23T11:57:00.621Z,99909.37
2022-09-23T11:59:40.963Z,99904.94
2022-09-23T12:02:30.740Z,99898.38
2022-09-23T12:05:03.073Z,99907.31
2022-09-23T12:07:42.222Z,99908.94
2022-09-23T12:10:11.093Z,99916.75
2022-09-23T12:12:41.376Z,99920.47
2022-09-23T12:15:18.139Z,99915.25
2022-09-23T12:18:04.831Z,99903.56
2022-09-23T12:20:58.224Z,99897.59
2022-09-23T12:23:26.297Z,99906.03
2022-09-23T12:25:57.423Z,99898.62
2022-09-23T12:28:30.649Z,99897.97
2022-09-23T12:30:59.652Z,99895.22
2022-09-23T12:33:32.728Z,99901.47
2022-09-23T12:36:05.764Z,99905.19
2022-09-23T12:38:53.671Z,99905.38
2022-09-23T12:41:37.268Z,99915.50
2022-09-23T12:44:11.368Z,99918.28
2022-09-23T12:46:40.298Z,99914.81
2022-09-23T12:49:36.811Z,99907.16
2022-09-23T12:52:10.809Z,99909.66
2022-09-23T12:54:42.307Z,99908.19
2022-09-23T12:57:10.088Z,99902.66
2022-09-23T12:59:54.755Z,99901.78
2022-09-23T13:02:38.497Z,99897.50
2022-09-23T13:05:47.448Z,99889.97
2022-09-23T13:08:17.256Z,99885.00
2022-09-23T13:10:55.733Z,99887.97
2022-09-23T13:13:23.764Z,99879.06
2022-09-23T13:15:52.296Z,99892.97
2022-09-23T13:18:20.628Z,99884.44
2022-09-23T13:20:49.198Z,99880.00
2022-09-23T13:23:31.537Z,99882.13
2022-09-23T13:26:09.615Z,99887.41
2022-09-23T13:28:43.880Z,99885.66
2022-09-23T13:31:16.525Z,99883.06
2022-09-23T13:33:49.402Z,99885.19
2022-09-23T13:36:18.258Z,99886.47
2022-09-23T13:38:49.462Z,99871.53
2022-09-23T13:41:21.640Z,99877.75
2022-09-23T13:43:58.901Z,99870.63
2022-09-23T13:46:28.515Z,99879.25
2022-09-23T13:48:56.788Z,99880.31
2022-09-23T13:51:30.349Z,99876.06
2022-09-23T13:53:59.667Z,99874.81
2022-09-23T13:56:29.084Z,99880.22
2022-09-23T13:59:15.146Z,99876.97
2022-09-23T14:01:42.999Z,99877.13
2022-09-23T14:04:23.552Z,99867.69
2022-09-23T14:06:51.218Z,99868.31
2022-09-23T14:09:20.628Z,99864.81
2022-09-23T14:11:50.095Z,99856.31
2022-09-23T14:14:17.956Z,99857.44
2022-09-23T14:16:45.848Z,99841.81
2022-09-23T14:19:17.841Z,99840.94
2022-09-23T14:21:49.490Z,99838.38
2022-09-23T14:24:18.824Z,99837.59
2022-09-23T14:26:48.000Z,99841.50
2022-09-23T14:29:24.886Z,99834.25
2022-09-23T14:32:00.465Z,99852.34
2022-09-23T14:34:48.668Z,99850.22
2022-09-23T14:37:41.186Z,99857.06
2022-09-23T14:40:14.058Z,99850.75
2022-09-23T14:42:52.454Z,99857.72
2022-09-23T14:45:22.184Z,99852.53
2022-09-23T14:47:52.136Z,99848.69
2022-09-23T14:50:37.277Z,99847.09
2022-09-23T14:53:25.402Z,99840.13
2022-09-23T14:55:59.958Z,99843.63
2022-09-23T14:58:28.923Z,99841.13
2022-09-23T15:00:57.822Z,99837.16
2022-09-23T15:03:25.672Z,99838.25
2022-09-23T15:05:58.273Z,99837.09
2022-09-23T15:08:27.954Z,99833.56
2022-09-23T15:10:59.199Z,99831.41
2022-09-23T15:13:34.259Z,99827.69
2022-09-23T15:16:02.220Z,99831.63
2022-09-23T15:18:35.195Z,99830.78
2022-09-23T15:21:08.772Z,99826.34
2022-09-23T15:23:48.365Z,99816.28
2022-09-23T15:26:17.932Z,99814.31
2022-09-23T15:28:45.859Z,99808.72
2022-09-23T15:31:15.355Z,99817.87
2022-09-23T15:33:48.013Z,99813.06
2022-09-23T15:36:17.718Z,99812.16
2022-09-23T15:38:46.427Z,99810.72
2022-09-23T15:41:17.935Z,99809.44
2022-09-23T15:43:47.097Z,99807.06
2022-09-23T15:46:17.671Z,99808.03
2022-09-23T15:48:58.479Z,99805.41
2022-09-23T15:51:27.374Z,99806.38
2022-09-23T15:56:42.922Z,99812.34
2022-09-23T15:59:11.113Z,99810.06
2022-09-23T16:01:39.092Z,99810.41
2022-09-23T16:04:07.028Z,99811.75
2022-09-23T16:06:36.306Z,99815.91
2022-09-23T16:09:04.092Z,99817.72
2022-09-23T16:11:32.246Z,99810.69
2022-09-23T16:14:01.007Z,99810.91
2022-09-23T16:16:28.632Z,99809.25
2022-09-23T16:18:56.480Z,99803.41
2022-09-23T16:21:28.330Z,99800.53
2022-09-23T16:23:57.553Z,99802.69
2022-09-23T16:26:33.049Z,99790.03
2022-09-23T16:29:01.578Z,99799.81
2022-09-23T16:31:32.039Z,99784.78
2022-09-23T16:34:02.771Z,99785.72
2022-09-23T16:36:32.367Z,99787.91
2022-09-23T16:39:00.721Z,99786.56
2022-09-23T16:41:31.922Z,99784.41
2022-09-23T16:44:04.787Z,99780.59
2022-09-23T16:46:33.297Z,99780.09
2022-09-23T16:49:01.460Z,99776.66
2022-09-23T16:51:30.333Z,99775.56
2022-09-23T16:53:58.498Z,99772.94
2022-09-23T16:56:28.940Z,99766.97
2022-09-23T16:58:57.221Z,99763.63
2022-09-23T17:01:44.887Z,99762.69
2022-09-23T17:04:13.068Z,99759.81
2022-09-23T17:06:44.377Z,99758.75
2022-09-23T17:09:12.525Z,99754.81
2022-09-23T17:11:40.551Z,99755.75
2022-09-23T17:14:08.033Z,99740.72
2022-09-23T17:16:35.625Z,99736.81
2022-09-23T17:19:08.222Z,99744.69
2022-09-23T17:21:35.975Z,99739.28
2022-09-23T17:24:04.125Z,99739.66
2022-09-23T17:26:31.655Z,99733.81
2022-09-23T17:28:59.913Z,99735.25
2022-09-23T17:31:28.312Z,99730.25
2022-09-23T17:33:55.915Z,99735.94
2022-09-23T17:36:23.559Z,99727.81
2022-09-23T17:38:54.262Z,99715.81
2022-09-23T17:41:22.116Z,99730.47
2022-09-23T17:43:54.185Z,99713.53
2022-09-23T17:46:22.080Z,99709.00
2022-09-23T17:48:52.499Z,99705.09
2022-09-23T17:51:20.140Z,99706.78
2022-09-23T17:53:48.479Z,99704.25
2022-09-23T17:56:20.130Z,99694.63
2022-09-23T17:58:48.889Z,99693.63
2022-09-23T18:01:18.693Z,99691.38
2022-09-23T18:03:47.593Z,99688.75
2022-09-23T18:06:19.095Z,99689.94
2022-09-23T18:08:47.848Z,99692.81
2022-09-23T18:11:17.170Z,99683.78
2022-09-23T18:13:49.397Z,99684.34
2022-09-23T18:16:17.481Z,99676.62
2022-09-23T18:18:45.144Z,99670.16
2022-09-23T18:21:12.628Z,99671.81
2022-09-23T18:23:40.516Z,99670.75
2022-09-23T18:26:15.113Z,99668.00
2022-09-23T18:28:43.894Z,99660.47
2022-09-23T18:31:11.818Z,99654.38
2022-09-23T18:33:39.526Z,99654.38
2022-09-23T18:36:08.034Z,99655.09
2022-09-23T18:38:35.681Z,99651.75
2022-09-23T18:41:03.283Z,99648.91
2022-09-23T18:43:40.736Z,99642.09
2022-09-23T18:46:15.629Z,99642.47
2022-09-23T18:49:02.158Z,99641.25
2022-09-23T18:51:30.537Z,99639.72
2022-09-23T18:53:59.912Z,99638.03
2022-09-23T18:56:37.504Z,99633.03
2022-09-23T18:59:06.741Z,99630.50
2022-09-23T19:01:34.456Z,99624.69
2022-09-23T19:04:02.611Z,99630.41
2022-09-23T19:06:35.201Z,99630.75
2022-09-23T19:09:05.572Z,99625.28
2022-09-23T19:11:36.665Z,99622.88
2022-09-23T19:14:06.381Z,99621.25
2022-09-23T19:16:35.241Z,99616.81
2022-09-23T19:19:04.689Z,99617.41
2022-09-23T19:21:33.056Z,99607.75
2022-09-23T19:24:04.089Z,99607.41
2022-09-23T19:26:33.193Z,99610.75
2022-09-23T19:29:01.573Z,99601.66
2022-09-23T19:31:33.754Z,99600.47
2022-09-23T19:34:10.989Z,99594.28
2022-09-23T19:36:40.214Z,99594.88
2022-09-23T19:39:09.271Z,99579.75
2022-09-23T19:41:36.833Z,99580.19
2022-09-23T19:44:07.874Z,99584.28
2022-09-23T19:46:41.022Z,99578.31
2022-09-23T19:49:08.786Z,99581.53
2022-09-23T19:51:36.910Z,99566.13
2022-09-23T19:54:05.546Z,99559.25
2022-09-23T19:56:33.436Z,99550.87
2022-09-23T19:59:03.275Z,99555.91
2022-09-23T20:01:32.158Z,99542.91
2022-09-23T20:04:00.424Z,99535.03
2022-09-23T20:06:31.910Z,99538.03
2022-09-23T20:09:01.125Z,99531.13
2022-09-23T20:11:29.238Z,99531.84
2022-09-23T20:14:06.537Z,99525.19
2022-09-23T20:16:35.566Z,99521.47
2022-09-23T20:19:04.587Z,99515.03
2022-09-23T20:21:32.269Z,99516.00
2022-09-23T20:24:00.325Z,99511.59
2022-09-23T20:26:46.173Z,99505.03
2022-09-23T20:29:14.074Z,99504.69
2022-09-23T20:31:41.797Z,99501.69
2022-09-23T20:34:10.978Z,99496.72
2022-09-23T20:36:41.287Z,99500.53
2022-09-23T20:39:09.942Z,99499.00
2022-09-23T20:41:38.636Z,99490.41
2022-09-23T20:44:08.088Z,99489.44
2022-09-23T20:46:36.074Z,99479.06
2022-09-23T20:49:04.609Z,99480.28
2022-09-23T20:51:33.599Z,99484.34
2022-09-23T20:54:01.245Z,99476.13
2022-09-23T20:56:29.355Z,99472.28
2022-09-23T20:59:04.567Z,99474.69
2022-09-23T21:01:38.499Z,99470.75
2022-09-23T21:04:07.905Z,99458.75
2022-09-23T21:06:36.888Z,99464.31
2022-09-23T21:09:04.986Z,99459.47
2022-09-23T21:11:32.877Z,99458.50
2022-09-23T21:14:01.711Z,99448.81
2022-09-23T21:16:29.570Z,99445.53
2022-09-23T21:18:58.055Z,99448.53
2022-09-23T21:21:25.717Z,99442.06
2022-09-23T21:23:53.175Z,99434.44
2022-09-23T21:26:21.890Z,99431.81
2022-09-23T21:28:50.765Z,99427.56
2022-09-23T21:31:26.085Z,99424.22
2022-09-23T21:34:01.563Z,99426.19
2022-09-23T21:36:30.228Z,99422.31
2022-09-23T21:38:58.393Z,99418.97
2022-09-23T21:41:25.870Z,99412.31
2022-09-23T21:43:53.386Z,99414.19
2022-09-23T21:46:21.737Z,99404.06
2022-09-23T21:48:53.126Z,99405.38
2022-09-23T21:51:25.720Z,99406.22
2022-09-23T21:53:54.972Z,99398.00
2022-09-23T21:56:23.928Z,99398.94
2022-09-23T21:58:52.456Z,99394.91
2022-09-23T22:01:21.023Z,99382.28
2022-09-23T22:03:51.170Z,99375.84
2022-09-23T22:06:21.788Z,99367.16
2022-09-23T22:08:50.779Z,99361.94
2022-09-23T22:11:41.426Z,99353.22
2022-09-23T22:14:10.694Z,99359.53
2022-09-23T22:16:39.314Z,99345.75
2022-09-23T22:19:07.392Z,99338.72
2022-09-23T22:21:36.853Z,99333.31
2022-09-23T22:24:04.972Z,99335.12
2022-09-23T22:26:33.620Z,99334.19
2022-09-23T22:29:19.683Z,99327.41
2022-09-23T22:32:05.527Z,99319.53
2022-09-23T22:34:49.041Z,99318.47
2022-09-23T22:37:18.994Z,99323.09
2022-09-23T22:39:46.944Z,99313.44
2022-09-23T22:42:14.652Z,99308.22
2022-09-23T22:44:42.503Z,99308.34
2022-09-23T22:47:10.948Z,99307.37
2022-09-23T22:49:38.423Z,99302.53
2022-09-23T22:52:09.413Z,99299.63
2022-09-23T22:54:37.404Z,99295.59
2022-09-23T22:57:05.491Z,99294.66
2022-09-23T22:59:33.146Z,99295.59
2022-09-23T23:02:02.581Z,99289.66
2022-09-23T23:04:30.759Z,99279.88
2022-09-23T23:06:59.088Z,99268.09
2022-09-23T23:09:26.992Z,99266.78
2022-09-23T23:11:54.467Z,99261.81
2022-09-23T23:14:21.933Z,99259.91
2022-09-23T23:16:49.861Z,99245.13
2022-09-23T23:19:17.729Z,99243.34
2022-09-23T23:21:45.764Z,99235.81
2022-09-23T23:24:17.737Z,99230.56
2022-09-23T23:26:45.700Z,99232.38
2022-09-23T23:29:14.262Z,99230.00
2022-09-23T23:34:29.653Z,99212.97
2022-09-23T23:36:57.478Z,99218.44
2022-09-23T23:39:25.521Z,99214.66
2022-09-23T23:41:55.178Z,99214.41
2022-09-23T23:44:24.095Z,99204.16
2022-09-23T23:46:52.036Z,99204.62
2022-09-23T23:49:19.883Z,99184.50
2022-09-23T23:51:48.121Z,99187.25
2022-09-23T23:54:15.725Z,99177.63
2022-09-23T23:56:43.255Z,99179.66
2022-09-23T23:59:11.635Z,99170.13
